< < Back
Terminal Aerodrome Forecast


Current Version              Previous Versions:   1  2  3  4  5  6  7  8  9  

Terminal Aerodrome Forecast

254
FTUS42 KFFC 221100
TAFATL
TAF
KATL 221131Z 2212/2318 34011KT P6SM SKC
     FM230100 35003KT P6SM SKC
     FM231600 30005KT P6SM FEW250=



Latest METAR

399
SAUS70 KWBC 221500 RRW
MTRATL
METAR KATL 221452Z 01010KT 10SM CLR 14/03 A3012 RMK AO2 SLP197 T01390033
51016


USA.gov is the U.S. government's official web portal to all federal, state and local government web resources and services.